createdAt,value
2022-11-29T00:01:23.429Z,40.80
2022-11-29T00:03:51.624Z,43.53
2022-11-29T00:06:24.430Z,40.25
2022-11-29T00:08:51.674Z,42.47
2022-11-29T00:11:39.494Z,42.75
2022-11-29T00:14:08.340Z,44.00
2022-11-29T00:16:36.515Z,42.88
2022-11-29T00:19:04.166Z,43.42
2022-11-29T00:21:31.192Z,45.40
2022-11-29T00:23:59.480Z,42.25
2022-11-29T00:26:26.502Z,49.00
2022-11-29T00:28:53.545Z,46.35
2022-11-29T00:31:26.431Z,49.45
2022-11-29T00:33:53.788Z,49.13
2022-11-29T00:36:20.859Z,47.70
2022-11-29T00:38:48.008Z,48.72
2022-11-29T00:41:15.147Z,43.63
2022-11-29T00:43:42.425Z,46.47
2022-11-29T00:46:09.771Z,46.22
2022-11-29T00:48:37.311Z,47.30
2022-11-29T00:51:05.960Z,49.58
2022-11-29T00:53:34.416Z,50.33
2022-11-29T00:56:01.996Z,50.28
2022-11-29T00:58:29.130Z,46.13
2022-11-29T01:00:56.597Z,52.70
2022-11-29T01:03:24.018Z,43.20
2022-11-29T01:05:51.998Z,48.67
2022-11-29T01:08:19.322Z,47.97
2022-11-29T01:10:46.381Z,46.40
2022-11-29T01:13:13.433Z,45.92
2022-11-29T01:15:41.476Z,46.60
2022-11-29T01:18:08.766Z,51.33
2022-11-29T01:20:35.819Z,48.25
2022-11-29T01:23:02.907Z,50.17
2022-11-29T01:25:32.042Z,44.60
2022-11-29T01:27:59.136Z,43.53
2022-11-29T01:30:26.324Z,46.00
2022-11-29T01:32:53.421Z,43.45
2022-11-29T01:35:20.412Z,42.08
2022-11-29T01:37:47.456Z,42.78
2022-11-29T01:40:14.852Z,40.97
2022-11-29T01:42:41.899Z,44.05
2022-11-29T01:45:24.333Z,41.17
2022-11-29T01:47:57.182Z,42.95
2022-11-29T01:50:24.491Z,41.97
2022-11-29T01:52:52.075Z,40.47
2022-11-29T01:55:19.315Z,45.17
2022-11-29T01:57:47.066Z,43.08
2022-11-29T02:00:17.604Z,43.45
2022-11-29T02:02:51.796Z,43.28
2022-11-29T02:05:20.220Z,43.50
2022-11-29T02:07:51.814Z,44.72
2022-11-29T02:10:20.089Z,44.72
2022-11-29T02:12:55.949Z,40.83
2022-11-29T02:15:33.416Z,39.30
2022-11-29T02:18:06.497Z,38.97
2022-11-29T02:21:09.327Z,38.75
2022-11-29T02:24:03.945Z,34.95
2022-11-29T02:27:02.818Z,36.05
2022-11-29T02:29:45.486Z,32.75
2022-11-29T02:32:49.965Z,38.45
2022-11-29T02:35:23.595Z,36.85
2022-11-29T02:38:15.267Z,36.60
2022-11-29T02:40:57.146Z,38.60
2022-11-29T02:43:36.579Z,36.33
2022-11-29T02:46:17.708Z,35.47
2022-11-29T02:48:53.498Z,34.78
2022-11-29T02:51:34.729Z,35.10
2022-11-29T02:54:16.816Z,32.13
2022-11-29T02:56:56.918Z,32.83
2022-11-29T02:59:33.177Z,37.42
2022-11-29T03:02:28.532Z,32.40
2022-11-29T03:05:09.773Z,36.45
2022-11-29T03:08:06.105Z,37.78
2022-11-29T03:10:42.837Z,36.92
2022-11-29T03:14:02.405Z,39.47
2022-11-29T03:16:42.826Z,33.17
2022-11-29T03:19:28.940Z,34.80
2022-11-29T03:22:07.750Z,35.42
2022-11-29T03:24:48.459Z,33.03
2022-11-29T03:27:45.557Z,42.83
2022-11-29T03:30:14.515Z,32.35
2022-11-29T03:33:10.155Z,33.13
2022-11-29T03:35:47.627Z,38.53
2022-11-29T03:38:33.136Z,37.95
2022-11-29T03:41:15.734Z,37.45
2022-11-29T03:43:49.190Z,32.40
2022-11-29T03:46:25.529Z,28.48
2022-11-29T03:48:59.405Z,28.02
2022-11-29T03:54:03.383Z,28.88
2022-11-29T03:56:37.263Z,29.65
2022-11-29T03:59:40.516Z,28.40
2022-11-29T04:05:06.294Z,29.98
2022-11-29T04:07:51.211Z,33.78
2022-11-29T04:10:39.784Z,31.80
2022-11-29T04:13:42.812Z,30.10
2022-11-29T04:16:18.871Z,29.52
2022-11-29T04:19:34.127Z,28.23
2022-11-29T04:22:25.585Z,25.58
2022-11-29T04:25:14.044Z,29.02
2022-11-29T04:28:04.868Z,30.40
2022-11-29T04:31:06.332Z,32.05
2022-11-29T04:34:10.231Z,28.13
2022-11-29T04:37:28.387Z,29.65
2022-11-29T04:40:22.043Z,27.33
2022-11-29T04:43:09.939Z,26.20
2022-11-29T04:46:01.925Z,24.30
2022-11-29T04:49:01.881Z,25.60
2022-11-29T04:52:17.050Z,24.92
2022-11-29T04:55:04.526Z,26.85
2022-11-29T04:57:44.838Z,30.38
2022-11-29T05:00:16.908Z,28.75
2022-11-29T05:03:11.290Z,27.15
2022-11-29T05:08:42.967Z,26.02
2022-11-29T05:11:26.278Z,29.25
2022-11-29T05:14:36.174Z,32.92
2022-11-29T05:17:24.591Z,32.70
2022-11-29T05:20:13.276Z,32.08
2022-11-29T05:22:52.097Z,34.22
2022-11-29T05:25:22.133Z,31.60
2022-11-29T05:28:12.925Z,34.67
2022-11-29T05:31:23.245Z,31.20
2022-11-29T05:34:21.374Z,32.72
2022-11-29T05:37:36.370Z,26.88
2022-11-29T05:42:51.684Z,26.45
2022-11-29T05:45:28.469Z,26.13
2022-11-29T05:48:05.685Z,29.10
2022-11-29T05:50:42.173Z,25.95
2022-11-29T05:53:21.196Z,35.08
2022-11-29T05:56:12.942Z,27.50
2022-11-29T05:59:09.314Z,29.27
2022-11-29T06:02:03.247Z,26.23
2022-11-29T06:05:08.296Z,39.22
2022-11-29T06:07:44.885Z,23.65
2022-11-29T06:10:18.271Z,22.52
2022-11-29T06:12:55.884Z,20.55
2022-11-29T06:16:02.257Z,18.48
2022-11-29T06:18:41.024Z,20.25
2022-11-29T06:21:17.935Z,21.23
2022-11-29T06:24:11.093Z,22.50
2022-11-29T06:26:40.804Z,22.83
2022-11-29T06:29:46.034Z,21.00
2022-11-29T06:32:40.840Z,22.20
2022-11-29T06:35:22.117Z,20.63
2022-11-29T06:37:51.905Z,20.33
2022-11-29T06:40:18.954Z,20.50
2022-11-29T06:42:46.031Z,22.70
2022-11-29T06:45:14.929Z,24.13
2022-11-29T06:48:06.794Z,25.92
2022-11-29T06:50:58.633Z,22.67
2022-11-29T06:53:39.140Z,19.35
2022-11-29T06:56:21.191Z,20.20
2022-11-29T06:59:08.558Z,16.90
2022-11-29T07:02:01.380Z,18.38
2022-11-29T07:04:45.743Z,19.05
2022-11-29T07:07:21.275Z,18.30
2022-11-29T07:09:50.870Z,15.40
2022-11-29T07:12:19.178Z,15.90
2022-11-29T07:14:47.189Z,16.30
2022-11-29T07:17:27.814Z,16.00
2022-11-29T07:20:18.209Z,17.58
2022-11-29T07:22:54.591Z,16.73
2022-11-29T07:25:26.839Z,16.45
2022-11-29T07:28:03.568Z,16.02
2022-11-29T07:31:07.131Z,15.73
2022-11-29T07:33:43.171Z,16.88
2022-11-29T07:36:29.139Z,15.48
2022-11-29T07:39:12.483Z,15.95
2022-11-29T07:41:46.423Z,16.65
2022-11-29T07:44:16.100Z,15.23
2022-11-29T07:46:43.300Z,14.05
2022-11-29T07:49:11.243Z,14.82
2022-11-29T07:51:38.392Z,17.15
2022-11-29T07:54:05.953Z,15.75
2022-11-29T07:56:33.296Z,17.35
2022-11-29T07:59:00.422Z,18.50
2022-11-29T08:01:28.088Z,17.45
2022-11-29T08:03:55.230Z,18.83
2022-11-29T08:06:26.195Z,18.00
2022-11-29T08:08:53.333Z,16.85
2022-11-29T08:11:20.406Z,19.60
2022-11-29T08:13:48.049Z,22.00
2022-11-29T08:16:19.376Z,16.55
2022-11-29T08:18:46.730Z,21.00
2022-11-29T08:21:18.170Z,18.13
2022-11-29T08:23:46.270Z,18.17
2022-11-29T08:26:13.864Z,19.70
2022-11-29T08:28:40.929Z,19.00
2022-11-29T08:31:11.016Z,16.25
2022-11-29T08:33:39.993Z,17.20
2022-11-29T08:36:09.803Z,18.30
2022-11-29T08:38:36.795Z,19.02
2022-11-29T08:41:10.060Z,16.08
2022-11-29T08:43:37.155Z,17.38
2022-11-29T08:46:04.773Z,17.05
2022-11-29T08:48:31.989Z,16.35
2022-11-29T08:50:58.982Z,15.88
2022-11-29T08:53:41.492Z,15.55
2022-11-29T08:57:04.249Z,14.68
2022-11-29T08:59:06.039Z,15.43
2022-11-29T09:01:33.145Z,14.60
2022-11-29T09:04:00.359Z,14.05
2022-11-29T09:06:32.699Z,17.70
2022-11-29T09:09:00.978Z,13.73
2022-11-29T09:11:30.571Z,15.90
2022-11-29T09:14:00.200Z,17.48
2022-11-29T09:16:29.945Z,16.88
2022-11-29T09:18:57.334Z,14.05
2022-11-29T09:21:29.333Z,13.90
2022-11-29T09:24:02.893Z,15.88
2022-11-29T09:29:01.154Z,14.90
2022-11-29T09:31:29.881Z,14.90
2022-11-29T09:33:57.245Z,16.65
2022-11-29T09:36:28.524Z,15.73
2022-11-29T09:38:57.697Z,17.08
2022-11-29T09:41:54.229Z,16.98
2022-11-29T09:44:53.874Z,19.63
2022-11-29T09:47:49.865Z,17.23
2022-11-29T09:50:26.685Z,16.42
2022-11-29T09:53:26.580Z,17.67
2022-11-29T09:56:18.224Z,18.23
2022-11-29T09:58:51.393Z,16.98
2022-11-29T10:01:27.131Z,16.95
2022-11-29T10:04:00.763Z,18.00
2022-11-29T10:06:36.650Z,16.77
2022-11-29T10:09:33.705Z,17.05
2022-11-29T10:12:25.156Z,15.23
2022-11-29T10:14:58.048Z,14.88
2022-11-29T10:17:33.803Z,15.50
2022-11-29T10:20:12.775Z,15.00
2022-11-29T10:22:45.595Z,16.27
2022-11-29T10:25:22.889Z,14.43
2022-11-29T10:27:50.142Z,15.15
2022-11-29T10:30:18.168Z,17.17
2022-11-29T10:32:48.440Z,16.17
2022-11-29T10:35:18.812Z,15.25
2022-11-29T10:38:07.828Z,16.48
2022-11-29T10:40:36.236Z,13.82
2022-11-29T10:43:04.335Z,15.68
2022-11-29T10:45:50.688Z,15.35
2022-11-29T10:48:21.237Z,13.95
2022-11-29T10:50:50.365Z,15.23
2022-11-29T10:53:27.321Z,14.82
2022-11-29T10:56:05.811Z,14.77
2022-11-29T10:58:33.027Z,14.05
2022-11-29T11:01:02.327Z,14.80
2022-11-29T11:03:37.504Z,18.23
2022-11-29T11:06:20.838Z,17.05
2022-11-29T11:08:52.689Z,16.67
2022-11-29T11:11:31.896Z,15.52
2022-11-29T11:14:05.582Z,15.40
2022-11-29T11:16:37.454Z,16.00
2022-11-29T11:19:28.483Z,16.10
2022-11-29T11:22:05.535Z,17.17
2022-11-29T11:24:41.942Z,15.50
2022-11-29T11:27:09.073Z,18.58
2022-11-29T11:29:39.672Z,15.90
2022-11-29T11:32:18.595Z,15.93
2022-11-29T11:34:59.824Z,13.77
2022-11-29T11:37:32.712Z,17.58
2022-11-29T11:40:19.106Z,15.73
2022-11-29T11:42:46.690Z,16.73
2022-11-29T11:45:13.677Z,16.30
2022-11-29T11:47:46.644Z,18.65
2022-11-29T11:50:43.559Z,16.10
2022-11-29T11:53:36.498Z,15.50
2022-11-29T11:56:09.822Z,15.48
2022-11-29T11:58:58.320Z,15.52
2022-11-29T12:01:28.577Z,15.85
2022-11-29T12:04:20.533Z,15.65
2022-11-29T12:06:58.540Z,14.98
2022-11-29T12:09:44.567Z,14.60
2022-11-29T12:12:20.651Z,15.85
2022-11-29T12:14:58.467Z,14.68
2022-11-29T12:17:46.675Z,14.38
2022-11-29T12:20:25.420Z,14.73
2022-11-29T12:23:18.272Z,14.48
2022-11-29T12:26:05.694Z,15.25
2022-11-29T12:28:38.302Z,17.80
2022-11-29T12:31:34.018Z,19.45
2022-11-29T12:34:27.227Z,14.80
2022-11-29T12:37:04.485Z,15.52
2022-11-29T12:39:53.536Z,14.20
2022-11-29T12:42:48.174Z,15.52
2022-11-29T12:45:27.129Z,24.20
2022-11-29T12:48:08.915Z,16.58
2022-11-29T12:50:54.528Z,14.73
2022-11-29T12:53:32.945Z,15.18
2022-11-29T12:56:25.158Z,14.45
2022-11-29T12:59:21.526Z,15.48
2022-11-29T13:02:20.817Z,14.95
2022-11-29T13:05:17.161Z,14.25
2022-11-29T13:07:53.127Z,15.50
2022-11-29T13:10:54.027Z,15.88
2022-11-29T13:13:41.448Z,14.13
2022-11-29T13:16:31.045Z,15.05
2022-11-29T13:19:35.754Z,14.52
2022-11-29T13:22:10.061Z,15.07
2022-11-29T13:24:46.271Z,14.55
2022-11-29T13:27:25.566Z,13.80
2022-11-29T13:29:53.585Z,14.77
2022-11-29T13:32:28.330Z,14.88
2022-11-29T13:35:01.364Z,14.63
2022-11-29T13:37:44.952Z,14.13
2022-11-29T13:40:49.106Z,14.43
2022-11-29T13:43:30.427Z,13.80
2022-11-29T13:46:28.191Z,15.30
2022-11-29T13:48:55.612Z,14.82
2022-11-29T13:51:27.062Z,13.73
2022-11-29T13:54:01.138Z,13.68
2022-11-29T13:56:46.200Z,14.50
2022-11-29T13:59:22.517Z,14.30
2022-11-29T14:01:52.696Z,13.98
2022-11-29T14:04:37.900Z,13.70
2022-11-29T14:07:10.003Z,14.07
2022-11-29T14:10:02.191Z,13.23
2022-11-29T14:12:54.336Z,12.98
2022-11-29T14:15:28.237Z,13.48
2022-11-29T14:17:58.777Z,11.50
2022-11-29T14:20:28.088Z,12.07
2022-11-29T14:23:04.588Z,11.73
2022-11-29T14:25:51.749Z,12.20
2022-11-29T14:28:22.075Z,12.75
2022-11-29T14:31:02.745Z,13.30
2022-11-29T14:34:24.149Z,12.82
2022-11-29T14:37:04.436Z,13.18
2022-11-29T14:39:43.326Z,13.15
2022-11-29T14:42:17.041Z,13.55
2022-11-29T14:47:26.364Z,12.60
2022-11-29T14:49:55.672Z,14.38
2022-11-29T14:52:37.068Z,13.60
2022-11-29T14:55:29.061Z,15.38
2022-11-29T14:58:05.850Z,15.45
2022-11-29T15:00:32.878Z,15.95
2022-11-29T15:03:08.740Z,15.60
2022-11-29T15:05:39.796Z,15.90
2022-11-29T15:08:16.945Z,15.27
2022-11-29T15:10:50.200Z,16.92
2022-11-29T15:13:28.002Z,17.83
2022-11-29T15:16:09.416Z,21.08
2022-11-29T15:19:13.104Z,17.13
2022-11-29T15:22:03.736Z,17.40
2022-11-29T15:24:30.752Z,16.02
2022-11-29T15:26:59.886Z,17.50
2022-11-29T15:29:28.357Z,20.52
2022-11-29T15:32:01.370Z,21.10
2022-11-29T15:34:34.949Z,17.20
2022-11-29T15:37:02.157Z,17.08
2022-11-29T15:39:33.900Z,20.35
2022-11-29T15:42:10.146Z,19.98
2022-11-29T15:44:37.244Z,18.45
2022-11-29T15:47:16.292Z,19.50
2022-11-29T15:49:43.413Z,20.35
2022-11-29T15:52:20.699Z,19.40
2022-11-29T15:54:55.425Z,17.20
2022-11-29T15:57:30.876Z,17.70
2022-11-29T16:00:04.461Z,18.45
2022-11-29T16:02:39.198Z,17.88
2022-11-29T16:05:42.031Z,16.90
2022-11-29T16:08:18.190Z,17.23
2022-11-29T16:10:52.865Z,17.55
2022-11-29T16:13:25.715Z,19.20
2022-11-29T16:16:16.247Z,17.70
2022-11-29T16:18:45.323Z,18.25
2022-11-29T16:21:30.527Z,19.08
2022-11-29T16:23:58.839Z,20.30
2022-11-29T16:26:34.366Z,18.40
2022-11-29T16:29:01.716Z,17.95
2022-11-29T16:31:37.226Z,18.73
2022-11-29T16:34:26.161Z,18.48
2022-11-29T16:37:07.987Z,20.75
2022-11-29T16:39:38.341Z,20.75
2022-11-29T16:42:18.282Z,19.85
2022-11-29T16:44:49.917Z,19.25
2022-11-29T16:47:22.202Z,21.92
2022-11-29T16:50:14.499Z,18.98
2022-11-29T16:52:41.900Z,20.30
2022-11-29T16:55:09.060Z,19.75
2022-11-29T16:57:37.061Z,19.17
2022-11-29T17:00:37.264Z,20.27
2022-11-29T17:03:04.779Z,19.17
2022-11-29T17:05:32.135Z,18.75
2022-11-29T17:08:00.180Z,21.00
2022-11-29T17:10:28.793Z,17.98
2022-11-29T17:12:55.944Z,19.20
2022-11-29T17:15:23.302Z,18.23
2022-11-29T17:17:50.822Z,18.95
2022-11-29T17:20:18.489Z,21.48
2022-11-29T17:22:45.606Z,20.65
2022-11-29T17:25:12.855Z,23.20
2022-11-29T17:27:39.897Z,21.05
2022-11-29T17:30:08.133Z,19.85
2022-11-29T17:32:35.882Z,20.00
2022-11-29T17:35:03.327Z,19.08
2022-11-29T17:37:31.148Z,20.00
2022-11-29T17:39:58.339Z,19.05
2022-11-29T17:42:25.542Z,18.52
2022-11-29T17:44:52.684Z,18.58
2022-11-29T17:47:19.787Z,18.55
2022-11-29T17:49:47.189Z,20.25
2022-11-29T17:52:14.523Z,18.95
2022-11-29T17:54:41.987Z,20.65
2022-11-29T17:57:09.174Z,18.38
2022-11-29T17:59:36.223Z,17.48
2022-11-29T18:02:04.689Z,18.48
2022-11-29T18:04:31.746Z,19.35
2022-11-29T18:06:59.073Z,17.92
2022-11-29T18:09:26.066Z,16.88
2022-11-29T18:11:53.168Z,16.40
2022-11-29T18:14:23.721Z,16.65
2022-11-29T18:16:52.044Z,18.10
2022-11-29T18:19:21.953Z,18.08
2022-11-29T18:21:50.706Z,17.35
2022-11-29T18:24:19.100Z,17.42
2022-11-29T18:26:47.946Z,16.75
2022-11-29T18:29:15.615Z,17.00
2022-11-29T18:31:44.952Z,18.90
2022-11-29T18:34:14.100Z,17.48
2022-11-29T18:36:44.434Z,15.40
2022-11-29T18:39:14.476Z,15.43
2022-11-29T18:41:48.835Z,17.08
2022-11-29T18:44:18.320Z,15.88
2022-11-29T18:46:46.133Z,15.38
2022-11-29T18:49:18.313Z,13.35
2022-11-29T18:51:47.104Z,14.45
2022-11-29T18:54:18.812Z,15.30
2022-11-29T18:56:46.492Z,15.13
2022-11-29T18:59:19.142Z,15.52
2022-11-29T19:01:48.667Z,15.07
2022-11-29T19:04:18.399Z,14.15
2022-11-29T19:06:45.735Z,13.57
2022-11-29T19:09:18.407Z,13.07
2022-11-29T19:11:45.561Z,13.15
2022-11-29T19:14:13.108Z,14.80
2022-11-29T19:16:43.409Z,13.52
2022-11-29T19:19:10.772Z,13.70
2022-11-29T19:21:39.865Z,13.60
2022-11-29T19:24:15.676Z,13.27
2022-11-29T19:26:44.927Z,12.52
2022-11-29T19:29:13.833Z,12.52
2022-11-29T19:31:42.699Z,11.80
2022-11-29T19:34:10.560Z,12.60
2022-11-29T19:36:43.053Z,14.13
2022-11-29T19:39:12.943Z,12.32
2022-11-29T19:41:42.981Z,12.05
2022-11-29T19:44:10.389Z,12.90
2022-11-29T19:46:40.969Z,12.20
2022-11-29T19:49:08.901Z,11.90
2022-11-29T19:51:37.097Z,12.07
2022-11-29T19:54:07.162Z,12.27
2022-11-29T19:56:34.645Z,12.00
2022-11-29T19:59:01.842Z,12.52
2022-11-29T20:01:37.875Z,11.82
2022-11-29T20:04:08.695Z,11.80
2022-11-29T20:06:36.149Z,11.18
2022-11-29T20:09:03.475Z,10.35
2022-11-29T20:11:30.819Z,10.30
2022-11-29T20:14:00.241Z,11.35
2022-11-29T20:16:28.768Z,10.40
2022-11-29T20:18:56.616Z,9.55
2022-11-29T20:21:26.241Z,10.57
2022-11-29T20:23:58.735Z,11.15
2022-11-29T20:26:27.583Z,10.25
2022-11-29T20:28:55.320Z,10.70
2022-11-29T20:31:23.425Z,9.48
2022-11-29T20:33:52.816Z,10.43
2022-11-29T20:37:07.333Z,10.18
2022-11-29T20:39:34.392Z,10.05
2022-11-29T20:42:29.428Z,8.55
2022-11-29T20:44:59.114Z,9.63
2022-11-29T20:47:32.505Z,8.93
2022-11-29T20:49:59.766Z,9.27
2022-11-29T20:52:29.480Z,9.57
2022-11-29T20:54:56.472Z,7.85
2022-11-29T20:57:24.028Z,9.15
2022-11-29T20:59:51.093Z,9.82
2022-11-29T21:02:22.556Z,10.20
2022-11-29T21:04:49.587Z,9.55
2022-11-29T21:07:17.163Z,8.90
2022-11-29T21:09:44.284Z,9.07
2022-11-29T21:12:11.876Z,9.25
2022-11-29T21:14:39.177Z,10.40
2022-11-29T21:17:07.785Z,9.38
2022-11-29T21:19:35.089Z,9.73
2022-11-29T21:22:10.726Z,9.63
2022-11-29T21:24:56.367Z,9.68
2022-11-29T21:27:34.329Z,9.55
2022-11-29T21:30:05.634Z,9.40
2022-11-29T21:32:33.173Z,10.10
2022-11-29T21:35:00.201Z,9.40
2022-11-29T21:37:30.790Z,9.85
2022-11-29T21:39:58.577Z,9.18
2022-11-29T21:42:25.651Z,10.57
2022-11-29T21:44:52.766Z,9.48
2022-11-29T21:47:19.798Z,11.23
2022-11-29T21:49:47.393Z,9.95
2022-11-29T21:52:19.197Z,9.23
2022-11-29T21:54:49.696Z,8.90
2022-11-29T21:57:17.018Z,9.45
2022-11-29T21:59:44.160Z,9.57
2022-11-29T22:02:11.350Z,9.50
2022-11-29T22:04:38.616Z,9.98
2022-11-29T22:07:05.897Z,9.23
2022-11-29T22:09:33.025Z,9.15
2022-11-29T22:12:00.180Z,9.68
2022-11-29T22:14:27.315Z,10.77
2022-11-29T22:16:59.706Z,9.32
2022-11-29T22:19:32.095Z,12.50
2022-11-29T22:22:03.403Z,11.23
2022-11-29T22:24:36.170Z,12.38
2022-11-29T22:27:03.772Z,12.65
2022-11-29T22:29:31.009Z,12.18
2022-11-29T22:31:59.422Z,13.88
2022-11-29T22:34:27.416Z,13.80
2022-11-29T22:36:55.398Z,14.13
2022-11-29T22:39:23.096Z,14.85
2022-11-29T22:41:54.315Z,15.77
2022-11-29T22:44:23.790Z,17.38
2022-11-29T22:46:51.218Z,17.40
2022-11-29T22:49:18.573Z,17.05
2022-11-29T22:51:45.627Z,16.58
2022-11-29T22:54:15.455Z,15.88
2022-11-29T22:56:43.845Z,17.13
2022-11-29T22:59:10.859Z,16.73
2022-11-29T23:01:40.636Z,18.15
2022-11-29T23:04:09.162Z,17.05
2022-11-29T23:06:41.729Z,18.42
2022-11-29T23:09:15.131Z,17.85
2022-11-29T23:11:44.237Z,18.42
2022-11-29T23:14:12.190Z,17.38
2022-11-29T23:16:40.696Z,17.50
2022-11-29T23:19:07.855Z,17.77
2022-11-29T23:21:37.661Z,18.17
2022-11-29T23:24:06.069Z,18.17
2022-11-29T23:26:39.701Z,16.83
2022-11-29T23:29:09.967Z,18.63
2022-11-29T23:31:37.197Z,18.98
2022-11-29T23:34:04.573Z,18.52
2022-11-29T23:36:32.132Z,19.17
2022-11-29T23:38:59.229Z,19.05
2022-11-29T23:41:26.298Z,17.55
2022-11-29T23:43:53.352Z,18.25
2022-11-29T23:46:23.501Z,18.95
2022-11-29T23:48:51.870Z,18.55
2022-11-29T23:51:19.964Z,19.23
2022-11-29T23:53:52.053Z,19.15
2022-11-29T23:56:19.951Z,18.50
2022-11-29T23:58:47.444Z,19.50
